Airport View

Enter ICAO identifier to see the current METAR for that AWOS.

KFNL for example

K8S0 021815Z 25013KT

2 Sep 2014 18:46

Other Area AWOS: KCTB - CWFJ - KGPI - CWRY

TAF KCTB 021733Z 0218/0318 25020G28KT P6SM BKN200 FM030600 27015KT P6SM SCT040 OVC090 FM030900 30015G25KT P6SM SCT025 OVC040 PROB30 0315/0318 4SM -RA OVC025